首页
METAR-TAF:

METAR-TAF

机场 :

帕果帕果國際機場

帕果帕果, 美国本土外小岛屿

纬度: 14-20S, 经度: 170-43W, 海拔: 3米

当前天气观测

该预报发布于22分钟前的07:50 UTC
风速3节,风向多变
温度 25°C
湿度 89%
气压 1010 hPa
能見度: 16.1公里
少量云层高于13000英尺
多云层高于24000英尺

METAR: NSTU 130750Z VRB03KT 10SM FEW130 BKN240 25/23 A2983 RMK SLP103 T02450225

时间: 21:12 (08:12 UTC)

预报

该预报发布于2小时和40分钟前的05:32 UTC
预报有效从13日的 06点(UTC)到 14日的 06点(UTC)
风速6节,风向多变
能見度: 10公里
散云层高于2000英尺
散云层高于3500英尺
多云层高于20000英尺
附近有阵雨
从 13日的 2100点(UTC)
风速9节,风向
能見度: 10公里
散云层高于2000英尺
散云层高于3000英尺
多云层高于20000英尺
附近有阵雨

TAF: NSTU 130532Z 1306/1406 VRB06KT P6SM VCSH SCT020 SCT035 BKN200 FM132100 10009KT P6SM VCSH SCT020 SCT030 BKN200

超过4000个机场的气象观测和天气预报(METAR&TAF报告)。

可查询的气象台以黄色和红色小点在地图上表示。

将鼠标移到小点上方,可查看气象台名称。

然后点击查看天气观测和预报。

如需切换地图:点击带黑十字的绿色按钮放大地图;点击带横线的绿色按钮缩小地图;或者点击绿色箭头查看邻近地区的地图。


METAR-TAF: